AJX583 RJFF-RJOO
Flight info
| Callsign | AJX583 |
|---|---|
| Flight time | 0h 47m |
| Altitude | 35000 |
| Route | IPRIR Y231 MIRIO Y401 KAINA Y753 IZUMI |
| Aircraft | B789/H-SDE1E2E3FGHIJ2J3J4J5M1RWXY/LB1D1 |
Departure
| Time | 2026-05-05 13:57 |
|---|---|
| Airport | Fukuoka Airport (RJFF) |
Arrival
| Time | 2026-05-05 14:44 |
|---|---|
| Airport | Osaka Itami International Airport (RJOO) |
| Time | Latitude | Longitude | Altitude | Speed | Heading |
|---|---|---|---|---|---|
| 2026-05-05 13:39 | 33.60009 | 130.44518 | 29 ft | 0 kts | 60° |
| 2026-05-05 13:44 | 33.60005 | 130.44511 | 29 ft | 4 kts | 60° |
| 2026-05-05 13:45 | 33.59994 | 130.44488 | 28 ft | 3 kts | 61° |
| 2026-05-05 13:45 | 33.59987 | 130.44465 | 27 ft | 4 kts | 99° |
| 2026-05-05 13:45 | 33.59995 | 130.44446 | 25 ft | 4 kts | 147° |
| 2026-05-05 13:45 | 33.60017 | 130.44431 | 27 ft | 4 kts | 151° |
| 2026-05-05 13:46 | 33.60021 | 130.44428 | 28 ft | 2 kts | 151° |
| 2026-05-05 13:49 | 33.60016 | 130.44431 | 27 ft | 3 kts | 151° |
| 2026-05-05 13:49 | 33.59986 | 130.44451 | 27 ft | 6 kts | 151° |
| 2026-05-05 13:50 | 33.59943 | 130.44480 | 29 ft | 8 kts | 150° |
| 2026-05-05 13:50 | 33.59895 | 130.44512 | 30 ft | 8 kts | 151° |
| 2026-05-05 13:50 | 33.59843 | 130.44546 | 31 ft | 9 kts | 152° |
| 2026-05-05 13:50 | 33.59795 | 130.44546 | 32 ft | 6 kts | 214° |
| 2026-05-05 13:51 | 33.59763 | 130.44518 | 32 ft | 6 kts | 199° |
| 2026-05-05 13:51 | 33.59704 | 130.44538 | 32 ft | 12 kts | 151° |
| 2026-05-05 13:51 | 33.59625 | 130.44592 | 31 ft | 14 kts | 150° |
| 2026-05-05 13:51 | 33.59536 | 130.44652 | 32 ft | 15 kts | 150° |
| 2026-05-05 13:52 | 33.59438 | 130.44718 | 30 ft | 18 kts | 150° |
| 2026-05-05 13:52 | 33.59324 | 130.44797 | 29 ft | 20 kts | 150° |
| 2026-05-05 13:52 | 33.59204 | 130.44878 | 30 ft | 20 kts | 150° |
| 2026-05-05 13:52 | 33.59078 | 130.44964 | 31 ft | 21 kts | 150° |
| 2026-05-05 13:53 | 33.58956 | 130.45048 | 35 ft | 20 kts | 150° |
| 2026-05-05 13:53 | 33.58835 | 130.45130 | 37 ft | 20 kts | 150° |
| 2026-05-05 13:53 | 33.58718 | 130.45210 | 39 ft | 19 kts | 150° |
| 2026-05-05 13:53 | 33.58599 | 130.45292 | 39 ft | 21 kts | 150° |
| 2026-05-05 13:54 | 33.58469 | 130.45380 | 40 ft | 22 kts | 150° |
| 2026-05-05 13:54 | 33.58333 | 130.45473 | 39 ft | 24 kts | 150° |
| 2026-05-05 13:54 | 33.58189 | 130.45569 | 41 ft | 23 kts | 151° |
| 2026-05-05 13:54 | 33.58070 | 130.45650 | 43 ft | 17 kts | 148° |
| 2026-05-05 13:55 | 33.57972 | 130.45721 | 47 ft | 16 kts | 150° |
| 2026-05-05 13:55 | 33.57879 | 130.45784 | 49 ft | 15 kts | 150° |
| 2026-05-05 13:55 | 33.57782 | 130.45850 | 50 ft | 17 kts | 150° |
| 2026-05-05 13:55 | 33.57682 | 130.45919 | 47 ft | 17 kts | 150° |
| 2026-05-05 13:56 | 33.57576 | 130.45938 | 51 ft | 15 kts | 214° |
| 2026-05-05 13:56 | 33.57527 | 130.45826 | 50 ft | 14 kts | 269° |
| 2026-05-05 13:56 | 33.57553 | 130.45777 | 49 ft | 6 kts | 327° |
| 2026-05-05 13:56 | 33.57561 | 130.45771 | 50 ft | 0 kts | 328° |
| 2026-05-05 13:57 | 33.57575 | 130.45762 | 50 ft | 16 kts | 329° |
| 2026-05-05 13:57 | 33.57959 | 130.45499 | 46 ft | 111 kts | 330° |
| 2026-05-05 13:57 | 33.58869 | 130.44879 | 173 ft | 177 kts | 328° |
| 2026-05-05 13:57 | 33.59938 | 130.44130 | 990 ft | 179 kts | 329° |
| 2026-05-05 13:58 | 33.61041 | 130.43351 | 1714 ft | 187 kts | 329° |
| 2026-05-05 13:58 | 33.62148 | 130.42558 | 2647 ft | 184 kts | 327° |
| 2026-05-05 13:58 | 33.63262 | 130.41729 | 3332 ft | 197 kts | 324° |
| 2026-05-05 13:58 | 33.64445 | 130.40775 | 3900 ft | 209 kts | 326° |
| 2026-05-05 13:59 | 33.67207 | 130.39851 | 5179 ft | 221 kts | 20° |
| 2026-05-05 13:59 | 33.68406 | 130.40921 | 5553 ft | 224 kts | 60° |
| 2026-05-05 14:00 | 33.68858 | 130.44572 | 6305 ft | 234 kts | 91° |
| 2026-05-05 14:00 | 33.68982 | 130.45910 | 6543 ft | 243 kts | 86° |
| 2026-05-05 14:00 | 33.69064 | 130.48711 | 6990 ft | 262 kts | 102° |
| 2026-05-05 14:00 | 33.68258 | 130.50657 | 7430 ft | 264 kts | 135° |
| 2026-05-05 14:01 | 33.66788 | 130.51951 | 8156 ft | 262 kts | 153° |
| 2026-05-05 14:01 | 33.65169 | 130.53000 | 8890 ft | 266 kts | 154° |
| 2026-05-05 14:01 | 33.63504 | 130.54006 | 9564 ft | 271 kts | 159° |
| 2026-05-05 14:01 | 33.61746 | 130.54879 | 10261 ft | 276 kts | 159° |
| 2026-05-05 14:02 | 33.59938 | 130.55790 | 10714 ft | 289 kts | 159° |
| 2026-05-05 14:02 | 33.58035 | 130.56749 | 11127 ft | 304 kts | 159° |
| 2026-05-05 14:02 | 33.56038 | 130.57755 | 11551 ft | 319 kts | 159° |
| 2026-05-05 14:02 | 33.53942 | 130.58808 | 12007 ft | 332 kts | 159° |
| 2026-05-05 14:03 | 33.51788 | 130.59891 | 12658 ft | 338 kts | 159° |
| 2026-05-05 14:03 | 33.49608 | 130.60988 | 13388 ft | 342 kts | 159° |
| 2026-05-05 14:03 | 33.47402 | 130.62095 | 14088 ft | 346 kts | 159° |
| 2026-05-05 14:03 | 33.45176 | 130.63232 | 14700 ft | 350 kts | 157° |
| 2026-05-05 14:04 | 33.43176 | 130.64958 | 15207 ft | 362 kts | 137° |
| 2026-05-05 14:04 | 33.41540 | 130.67263 | 15836 ft | 365 kts | 132° |
| 2026-05-05 14:04 | 33.39945 | 130.69656 | 16428 ft | 370 kts | 131° |
| 2026-05-05 14:04 | 33.38322 | 130.72067 | 16995 ft | 374 kts | 132° |
| 2026-05-05 14:05 | 33.36653 | 130.74477 | 17564 ft | 378 kts | 133° |
| 2026-05-05 14:05 | 33.34960 | 130.76915 | 18121 ft | 383 kts | 133° |
| 2026-05-05 14:05 | 33.33287 | 130.79414 | 18615 ft | 389 kts | 129° |
| 2026-05-05 14:05 | 33.32095 | 130.82367 | 19008 ft | 401 kts | 110° |
| 2026-05-05 14:06 | 33.31666 | 130.85692 | 19484 ft | 410 kts | 93° |
| 2026-05-05 14:06 | 33.32042 | 130.89093 | 19954 ft | 417 kts | 77° |
| 2026-05-05 14:06 | 33.32861 | 130.92432 | 20407 ft | 421 kts | 73° |
| 2026-05-05 14:06 | 33.33771 | 130.95781 | 20840 ft | 426 kts | 73° |
| 2026-05-05 14:07 | 33.34623 | 130.99188 | 21261 ft | 430 kts | 76° |
| 2026-05-05 14:07 | 33.35422 | 131.02654 | 21690 ft | 434 kts | 76° |
| 2026-05-05 14:07 | 33.36249 | 131.06145 | 22101 ft | 439 kts | 75° |
| 2026-05-05 14:07 | 33.37121 | 131.09662 | 22531 ft | 443 kts | 75° |
| 2026-05-05 14:08 | 33.37999 | 131.13222 | 22903 ft | 448 kts | 75° |
| 2026-05-05 14:08 | 33.38547 | 131.15604 | 23095 ft | 451 kts | 78° |
| 2026-05-05 14:08 | 33.39116 | 131.19308 | 23380 ft | 456 kts | 82° |
| 2026-05-05 14:08 | 33.39644 | 131.23066 | 23785 ft | 459 kts | 82° |
| 2026-05-05 14:09 | 33.40204 | 131.26847 | 24093 ft | 464 kts | 82° |
| 2026-05-05 14:09 | 33.40793 | 131.30662 | 24369 ft | 469 kts | 82° |
| 2026-05-05 14:09 | 33.41375 | 131.34517 | 24669 ft | 473 kts | 82° |
| 2026-05-05 14:09 | 33.41946 | 131.38419 | 24868 ft | 479 kts | 83° |
| 2026-05-05 14:10 | 33.42524 | 131.42376 | 25162 ft | 484 kts | 82° |
| 2026-05-05 14:10 | 33.43118 | 131.46348 | 25521 ft | 486 kts | 82° |
| 2026-05-05 14:10 | 33.43715 | 131.50350 | 25800 ft | 490 kts | 83° |
| 2026-05-05 14:10 | 33.44308 | 131.54390 | 26081 ft | 495 kts | 83° |
| 2026-05-05 14:11 | 33.44902 | 131.58468 | 26331 ft | 500 kts | 83° |
| 2026-05-05 14:11 | 33.45506 | 131.62586 | 26582 ft | 504 kts | 83° |
| 2026-05-05 14:11 | 33.46117 | 131.66736 | 26867 ft | 508 kts | 83° |
| 2026-05-05 14:11 | 33.46727 | 131.70914 | 27151 ft | 512 kts | 83° |
| 2026-05-05 14:12 | 33.47338 | 131.75130 | 27417 ft | 516 kts | 83° |
| 2026-05-05 14:12 | 33.47955 | 131.79384 | 27706 ft | 520 kts | 83° |
| 2026-05-05 14:12 | 33.48577 | 131.83670 | 28013 ft | 524 kts | 83° |
| 2026-05-05 14:12 | 33.49202 | 131.87990 | 28296 ft | 528 kts | 84° |
| 2026-05-05 14:13 | 33.49829 | 131.92342 | 28579 ft | 533 kts | 84° |
| 2026-05-05 14:13 | 33.50459 | 131.96734 | 28873 ft | 537 kts | 84° |
| 2026-05-05 14:13 | 33.51094 | 132.01160 | 29164 ft | 540 kts | 84° |
| 2026-05-05 14:13 | 33.51731 | 132.05611 | 29504 ft | 544 kts | 84° |
| 2026-05-05 14:14 | 33.52370 | 132.10091 | 29804 ft | 548 kts | 84° |
| 2026-05-05 14:14 | 33.53004 | 132.14549 | 30114 ft | 552 kts | 84° |
| 2026-05-05 14:14 | 33.53650 | 132.19109 | 30342 ft | 558 kts | 84° |
| 2026-05-05 14:14 | 33.54309 | 132.23762 | 30674 ft | 559 kts | 84° |
| 2026-05-05 14:15 | 33.54951 | 132.28306 | 30977 ft | 562 kts | 84° |
| 2026-05-05 14:15 | 33.55602 | 132.32937 | 31278 ft | 565 kts | 84° |
| 2026-05-05 14:15 | 33.56255 | 132.37598 | 31571 ft | 568 kts | 84° |
| 2026-05-05 14:15 | 33.56910 | 132.42282 | 31838 ft | 571 kts | 84° |
| 2026-05-05 14:16 | 33.57567 | 132.46979 | 32236 ft | 572 kts | 84° |
| 2026-05-05 14:16 | 33.58224 | 132.51696 | 32628 ft | 574 kts | 84° |
| 2026-05-05 14:16 | 33.58877 | 132.56417 | 33101 ft | 573 kts | 84° |
| 2026-05-05 14:16 | 33.59529 | 132.61125 | 33582 ft | 573 kts | 84° |
| 2026-05-05 14:17 | 33.60180 | 132.65845 | 33973 ft | 573 kts | 84° |
| 2026-05-05 14:17 | 33.60829 | 132.70564 | 34370 ft | 574 kts | 84° |
| 2026-05-05 14:17 | 33.61477 | 132.75293 | 34726 ft | 574 kts | 84° |
| 2026-05-05 14:17 | 33.62124 | 132.80021 | 35047 ft | 576 kts | 84° |
| 2026-05-05 14:18 | 33.62770 | 132.84769 | 35234 ft | 579 kts | 84° |
| 2026-05-05 14:18 | 33.63418 | 132.89533 | 35224 ft | 576 kts | 84° |
| 2026-05-05 14:18 | 33.64696 | 132.98961 | 35210 ft | 571 kts | 85° |
| 2026-05-05 14:19 | 33.65960 | 133.08378 | 35232 ft | 570 kts | 84° |
| 2026-05-05 14:19 | 33.67219 | 133.17777 | 35242 ft | 571 kts | 84° |
| 2026-05-05 14:20 | 33.68465 | 133.27170 | 35232 ft | 569 kts | 84° |
| 2026-05-05 14:20 | 33.69708 | 133.36568 | 35231 ft | 571 kts | 84° |
| 2026-05-05 14:21 | 33.70943 | 133.45976 | 35223 ft | 569 kts | 85° |
| 2026-05-05 14:21 | 33.72170 | 133.55376 | 35225 ft | 570 kts | 85° |
| 2026-05-05 14:22 | 33.73389 | 133.64772 | 35202 ft | 569 kts | 85° |
| 2026-05-05 14:22 | 33.74599 | 133.74167 | 35221 ft | 569 kts | 85° |
| 2026-05-05 14:23 | 33.75804 | 133.83563 | 35215 ft | 569 kts | 85° |
| 2026-05-05 14:23 | 33.77002 | 133.92971 | 35233 ft | 569 kts | 85° |
| 2026-05-05 14:24 | 33.78192 | 134.02372 | 35232 ft | 570 kts | 85° |
| 2026-05-05 14:24 | 33.79373 | 134.11755 | 35235 ft | 566 kts | 85° |
| 2026-05-05 14:25 | 33.80566 | 134.21157 | 35235 ft | 571 kts | 83° |
| 2026-05-05 14:25 | 33.81622 | 134.25757 | 35210 ft | 571 kts | 71° |
| 2026-05-05 14:25 | 33.83237 | 134.30057 | 35241 ft | 573 kts | 63° |
| 2026-05-05 14:26 | 33.86917 | 134.38589 | 35224 ft | 573 kts | 63° |
| 2026-05-05 14:26 | 33.90375 | 134.47186 | 35212 ft | 569 kts | 64° |
| 2026-05-05 14:27 | 33.93915 | 134.55660 | 35073 ft | 553 kts | 63° |
| 2026-05-05 14:27 | 33.95608 | 134.59749 | 33539 ft | 544 kts | 64° |
| 2026-05-05 14:27 | 33.97272 | 134.63874 | 31679 ft | 549 kts | 64° |
| 2026-05-05 14:28 | 33.98935 | 134.67976 | 30279 ft | 539 kts | 63° |
| 2026-05-05 14:28 | 34.00587 | 134.71969 | 28817 ft | 525 kts | 63° |
| 2026-05-05 14:28 | 34.02188 | 134.75842 | 27479 ft | 509 kts | 63° |
| 2026-05-05 14:28 | 34.03727 | 134.79622 | 26213 ft | 493 kts | 64° |
| 2026-05-05 14:29 | 34.05208 | 134.83278 | 25006 ft | 478 kts | 64° |
| 2026-05-05 14:29 | 34.06649 | 134.86810 | 23855 ft | 462 kts | 64° |
| 2026-05-05 14:29 | 34.08047 | 134.90224 | 22451 ft | 446 kts | 64° |
| 2026-05-05 14:29 | 34.09391 | 134.93521 | 21102 ft | 430 kts | 64° |
| 2026-05-05 14:30 | 34.10680 | 134.96701 | 19805 ft | 414 kts | 65° |
| 2026-05-05 14:30 | 34.11922 | 134.99761 | 18579 ft | 398 kts | 65° |
| 2026-05-05 14:30 | 34.13117 | 135.02702 | 17222 ft | 383 kts | 65° |
| 2026-05-05 14:30 | 34.14272 | 135.05547 | 15998 ft | 377 kts | 65° |
| 2026-05-05 14:31 | 34.15421 | 135.08387 | 15530 ft | 371 kts | 65° |
| 2026-05-05 14:31 | 34.16540 | 135.11151 | 15146 ft | 362 kts | 65° |
| 2026-05-05 14:31 | 34.17632 | 135.13849 | 14740 ft | 354 kts | 65° |
| 2026-05-05 14:31 | 34.18702 | 135.16496 | 14314 ft | 347 kts | 66° |
| 2026-05-05 14:32 | 34.19752 | 135.19096 | 13886 ft | 341 kts | 66° |
| 2026-05-05 14:32 | 34.20784 | 135.21654 | 13418 ft | 337 kts | 66° |
| 2026-05-05 14:32 | 34.21954 | 135.24092 | 12932 ft | 339 kts | 52° |
| 2026-05-05 14:32 | 34.23770 | 135.25921 | 12496 ft | 340 kts | 35° |
| 2026-05-05 14:33 | 34.25738 | 135.27504 | 12070 ft | 340 kts | 34° |
| 2026-05-05 14:33 | 34.27684 | 135.29046 | 11599 ft | 325 kts | 35° |
| 2026-05-05 14:33 | 34.29582 | 135.30597 | 11183 ft | 337 kts | 36° |
| 2026-05-05 14:33 | 34.31504 | 135.32189 | 10812 ft | 330 kts | 36° |
| 2026-05-05 14:34 | 34.33360 | 135.33710 | 10649 ft | 315 kts | 36° |
| 2026-05-05 14:34 | 34.35112 | 135.35138 | 10474 ft | 302 kts | 36° |
| 2026-05-05 14:34 | 34.36832 | 135.36545 | 10152 ft | 297 kts | 36° |
| 2026-05-05 14:34 | 34.38554 | 135.37960 | 9812 ft | 291 kts | 36° |
| 2026-05-05 14:35 | 34.40220 | 135.39328 | 9485 ft | 289 kts | 36° |
| 2026-05-05 14:35 | 34.41884 | 135.40694 | 9183 ft | 289 kts | 36° |
| 2026-05-05 14:35 | 34.43513 | 135.42052 | 8890 ft | 287 kts | 38° |
| 2026-05-05 14:35 | 34.44760 | 135.43869 | 8489 ft | 278 kts | 65° |
| 2026-05-05 14:36 | 34.45645 | 135.45913 | 8248 ft | 274 kts | 63° |
| 2026-05-05 14:36 | 34.46601 | 135.47925 | 8003 ft | 276 kts | 63° |
| 2026-05-05 14:36 | 34.47551 | 135.49944 | 7733 ft | 273 kts | 63° |
| 2026-05-05 14:36 | 34.48463 | 135.51935 | 7460 ft | 269 kts | 64° |
| 2026-05-05 14:37 | 34.49372 | 135.53931 | 7195 ft | 271 kts | 64° |
| 2026-05-05 14:37 | 34.50286 | 135.55921 | 6924 ft | 269 kts | 63° |
| 2026-05-05 14:37 | 34.51187 | 135.57875 | 6649 ft | 264 kts | 63° |
| 2026-05-05 14:37 | 34.52084 | 135.59831 | 6361 ft | 266 kts | 63° |
| 2026-05-05 14:38 | 34.52982 | 135.61791 | 6069 ft | 265 kts | 63° |
| 2026-05-05 14:38 | 34.53912 | 135.63701 | 5759 ft | 259 kts | 56° |
| 2026-05-05 14:38 | 34.55339 | 135.65031 | 5372 ft | 263 kts | 26° |
| 2026-05-05 14:38 | 34.57120 | 135.65429 | 5053 ft | 262 kts | 359° |
| 2026-05-05 14:39 | 34.58936 | 135.65386 | 4865 ft | 261 kts | 360° |
| 2026-05-05 14:39 | 34.60692 | 135.64927 | 4495 ft | 261 kts | 333° |
| 2026-05-05 14:39 | 34.62108 | 135.63604 | 4187 ft | 255 kts | 315° |
| 2026-05-05 14:39 | 34.63316 | 135.62054 | 3902 ft | 251 kts | 313° |
| 2026-05-05 14:40 | 34.64476 | 135.60608 | 3560 ft | 223 kts | 314° |
| 2026-05-05 14:40 | 34.65502 | 135.59382 | 3263 ft | 193 kts | 315° |
| 2026-05-05 14:40 | 34.66400 | 135.58300 | 2998 ft | 171 kts | 314° |
| 2026-05-05 14:40 | 34.67198 | 135.57336 | 2772 ft | 155 kts | 313° |
| 2026-05-05 14:41 | 34.67946 | 135.56428 | 2571 ft | 150 kts | 313° |
| 2026-05-05 14:41 | 34.68688 | 135.55526 | 2382 ft | 149 kts | 313° |
| 2026-05-05 14:41 | 34.69411 | 135.54649 | 2197 ft | 146 kts | 314° |
| 2026-05-05 14:41 | 34.70135 | 135.53771 | 1997 ft | 147 kts | 314° |
| 2026-05-05 14:42 | 34.70856 | 135.52895 | 1792 ft | 146 kts | 314° |
| 2026-05-05 14:42 | 34.71574 | 135.52021 | 1604 ft | 146 kts | 316° |
| 2026-05-05 14:42 | 34.72294 | 135.51151 | 1403 ft | 146 kts | 315° |
| 2026-05-05 14:42 | 34.73003 | 135.50272 | 1206 ft | 146 kts | 315° |
| 2026-05-05 14:43 | 34.73723 | 135.49401 | 1006 ft | 146 kts | 316° |
| 2026-05-05 14:43 | 34.74439 | 135.48536 | 813 ft | 144 kts | 316° |
| 2026-05-05 14:43 | 34.75143 | 135.47683 | 639 ft | 142 kts | 316° |
| 2026-05-05 14:43 | 34.75843 | 135.46839 | 443 ft | 142 kts | 316° |
| 2026-05-05 14:44 | 34.76540 | 135.45999 | 247 ft | 140 kts | 316° |
| 2026-05-05 14:44 | 34.77231 | 135.45168 | 88 ft | 140 kts | 316° |
| 2026-05-05 14:44 | 34.77875 | 135.44391 | 53 ft | 112 kts | 315° |
| 2026-05-05 14:44 | 34.78255 | 135.43933 | 50 ft | 45 kts | 315° |
| 2026-05-05 14:45 | 34.78468 | 135.43674 | 49 ft | 43 kts | 315° |
| 2026-05-05 14:45 | 34.78673 | 135.43425 | 51 ft | 41 kts | 315° |
| 2026-05-05 14:45 | 34.78868 | 135.43189 | 57 ft | 34 kts | 315° |
| 2026-05-05 14:45 | 34.79034 | 135.42989 | 52 ft | 26 kts | 315° |
| 2026-05-05 14:46 | 34.79128 | 135.42918 | 53 ft | 16 kts | 348° |
| 2026-05-05 14:46 | 34.79225 | 135.42966 | 54 ft | 16 kts | 43° |
| 2026-05-05 14:46 | 34.79311 | 135.43068 | 48 ft | 18 kts | 44° |
| 2026-05-05 14:46 | 34.79390 | 135.43184 | 51 ft | 16 kts | 77° |
| 2026-05-05 14:47 | 34.79357 | 135.43256 | 48 ft | 12 kts | 137° |
| 2026-05-05 14:47 | 34.79286 | 135.43340 | 48 ft | 15 kts | 135° |
| 2026-05-05 14:47 | 34.79207 | 135.43437 | 49 ft | 17 kts | 135° |
| 2026-05-05 14:47 | 34.79129 | 135.43541 | 49 ft | 14 kts | 112° |
| 2026-05-05 14:48 | 34.79134 | 135.43606 | 50 ft | 7 kts | 78° |
| 2026-05-05 14:48 | 34.79124 | 135.43663 | 50 ft | 7 kts | 121° |
| 2026-05-05 14:48 | 34.79085 | 135.43712 | 49 ft | 9 kts | 135° |
| 2026-05-05 14:48 | 34.79044 | 135.43761 | 53 ft | 9 kts | 135° |
| 2026-05-05 14:49 | 34.78992 | 135.43823 | 50 ft | 12 kts | 135° |
| 2026-05-05 14:49 | 34.78970 | 135.43894 | 51 ft | 4 kts | 71° |
| 2026-05-05 14:49 | 34.78986 | 135.43919 | 51 ft | 4 kts | 44° |
| 2026-05-05 14:49 | 34.79001 | 135.43939 | 51 ft | 3 kts | 56° |
| 2026-05-05 14:50 | 34.79007 | 135.43949 | 50 ft | 0 kts | 55° |
| 2026-05-05 15:49 | 34.79007 | 135.43950 | 55 ft | 1 kts | 57° |
| 2026-05-05 15:49 | 34.79006 | 135.43958 | 55 ft | 2 kts | 94° |
| 2026-05-05 15:49 | 34.78993 | 135.43977 | 48 ft | 5 kts | 149° |
| 2026-05-05 15:49 | 34.78957 | 135.43992 | 50 ft | 2 kts | 188° |
| 2026-05-05 15:50 | 34.78916 | 135.43960 | 51 ft | 9 kts | 207° |
| 2026-05-05 15:50 | 34.78869 | 135.43975 | 49 ft | 9 kts | 147° |
| 2026-05-05 15:50 | 34.78807 | 135.44048 | 50 ft | 14 kts | 135° |
| 2026-05-05 15:50 | 34.78736 | 135.44134 | 51 ft | 15 kts | 135° |
| 2026-05-05 15:51 | 34.78658 | 135.44227 | 49 ft | 16 kts | 135° |
| 2026-05-05 15:51 | 34.78575 | 135.44327 | 52 ft | 17 kts | 138° |
| 2026-05-05 15:51 | 34.78487 | 135.44344 | 52 ft | 12 kts | 187° |
| 2026-05-05 15:51 | 34.78402 | 135.44335 | 52 ft | 12 kts | 180° |
| 2026-05-05 15:52 | 34.78318 | 135.44335 | 54 ft | 12 kts | 180° |
| 2026-05-05 15:52 | 34.78226 | 135.44335 | 53 ft | 15 kts | 180° |
| 2026-05-05 15:52 | 34.78134 | 135.44386 | 50 ft | 16 kts | 134° |
| 2026-05-05 15:52 | 34.78055 | 135.44483 | 49 ft | 17 kts | 135° |
| 2026-05-05 15:53 | 34.77968 | 135.44588 | 48 ft | 18 kts | 135° |
| 2026-05-05 15:53 | 34.77876 | 135.44700 | 51 ft | 19 kts | 135° |
| 2026-05-05 15:53 | 34.77778 | 135.44819 | 54 ft | 20 kts | 135° |
| 2026-05-05 15:53 | 34.77676 | 135.44942 | 50 ft | 21 kts | 135° |
| 2026-05-05 15:54 | 34.77569 | 135.45071 | 52 ft | 22 kts | 135° |
| 2026-05-05 15:54 | 34.77464 | 135.45198 | 49 ft | 18 kts | 135° |
| 2026-05-05 15:54 | 34.77362 | 135.45294 | 50 ft | 19 kts | 156° |
| 2026-05-05 15:54 | 34.77281 | 135.45278 | 52 ft | 4 kts | 229° |
| 2026-05-05 15:55 | 34.77260 | 135.45235 | 51 ft | 8 kts | 245° |
| 2026-05-05 15:55 | 34.77243 | 135.45169 | 52 ft | 6 kts | 279° |
| 2026-05-05 15:55 | 34.77262 | 135.45137 | 50 ft | 6 kts | 309° |
| 2026-05-05 15:55 | 34.77288 | 135.45103 | 50 ft | 0 kts | 315° |
| 2026-05-05 15:56 | 34.77294 | 135.45095 | 52 ft | 2 kts | 315° |
| 2026-05-05 15:56 | 34.77348 | 135.45030 | 51 ft | 40 kts | 315° |
| 2026-05-05 15:56 | 34.77769 | 135.44519 | 47 ft | 129 kts | 315° |
| 2026-05-05 15:56 | 34.78591 | 135.43533 | 133 ft | 196 kts | 317° |
| 2026-05-05 15:57 | 34.79510 | 135.42389 | 630 ft | 180 kts | 315° |
| 2026-05-05 15:57 | 34.80144 | 135.41093 | 1075 ft | 179 kts | 279° |
| 2026-05-05 15:57 | 34.79801 | 135.39765 | 1715 ft | 166 kts | 223° |
| 2026-05-05 15:57 | 34.78835 | 135.38950 | 2127 ft | 176 kts | 209° |
| 2026-05-05 15:58 | 34.77640 | 135.38463 | 2343 ft | 193 kts | 179° |
| 2026-05-05 15:58 | 34.76385 | 135.39184 | 2587 ft | 217 kts | 138° |
| 2026-05-05 15:58 | 34.75696 | 135.40884 | 2879 ft | 240 kts | 99° |
| 2026-05-05 15:58 | 34.76031 | 135.42924 | 3282 ft | 260 kts | 64° |
| 2026-05-05 15:59 | 34.77066 | 135.44745 | 3996 ft | 263 kts | 54° |
| 2026-05-05 15:59 | 34.78083 | 135.46587 | 4718 ft | 265 kts | 61° |
| 2026-05-05 15:59 | 34.78941 | 135.48604 | 5459 ft | 268 kts | 67° |
| 2026-05-05 15:59 | 34.79685 | 135.50696 | 6115 ft | 271 kts | 74° |
| 2026-05-05 16:00 | 34.79748 | 135.52971 | 6712 ft | 269 kts | 102° |
| 2026-05-05 16:00 | 34.79567 | 135.55231 | 7396 ft | 273 kts | 96° |
| 2026-05-05 16:00 | 34.79493 | 135.57573 | 8105 ft | 277 kts | 96° |
| 2026-05-05 16:00 | 34.79385 | 135.59925 | 8791 ft | 280 kts | 97° |
| 2026-05-05 16:01 | 34.79237 | 135.62305 | 9493 ft | 284 kts | 98° |
| 2026-05-05 16:01 | 34.79090 | 135.64720 | 10177 ft | 289 kts | 98° |
| 2026-05-05 16:01 | 34.78948 | 135.67218 | 10575 ft | 304 kts | 97° |
| 2026-05-05 16:01 | 34.78801 | 135.69845 | 10935 ft | 319 kts | 97° |
| 2026-05-05 16:02 | 34.78746 | 135.72567 | 11215 ft | 338 kts | 87° |
| 2026-05-05 16:02 | 34.79447 | 135.75429 | 11628 ft | 354 kts | 71° |
| 2026-05-05 16:02 | 34.80363 | 135.78224 | 12321 ft | 358 kts | 70° |
| 2026-05-05 16:02 | 34.81275 | 135.81059 | 12976 ft | 362 kts | 72° |
| 2026-05-05 16:03 | 34.82150 | 135.83951 | 13641 ft | 366 kts | 72° |
| 2026-05-05 16:03 | 34.83031 | 135.86875 | 14278 ft | 371 kts | 72° |
| 2026-05-05 16:03 | 34.83932 | 135.89788 | 14831 ft | 374 kts | 71° |
| 2026-05-05 16:03 | 34.84859 | 135.92767 | 15397 ft | 378 kts | 71° |
| 2026-05-05 16:04 | 34.85784 | 135.95774 | 15966 ft | 382 kts | 71° |
| 2026-05-05 16:04 | 34.86715 | 135.98823 | 16499 ft | 387 kts | 71° |
| 2026-05-05 16:04 | 34.87657 | 136.01902 | 17064 ft | 390 kts | 71° |
| 2026-05-05 16:04 | 34.88613 | 136.05015 | 17635 ft | 394 kts | 71° |
| 2026-05-05 16:05 | 34.89575 | 136.08153 | 18197 ft | 397 kts | 71° |
| 2026-05-05 16:05 | 34.90543 | 136.11324 | 18708 ft | 401 kts | 71° |
| 2026-05-05 16:05 | 34.91528 | 136.14522 | 19123 ft | 405 kts | 70° |
| 2026-05-05 16:05 | 34.92940 | 136.17527 | 19452 ft | 414 kts | 52° |
| 2026-05-05 16:06 | 34.95021 | 136.19950 | 19890 ft | 416 kts | 37° |
| 2026-05-05 16:06 | 34.97373 | 136.22027 | 20336 ft | 419 kts | 33° |
| 2026-05-05 16:06 | 34.99780 | 136.24060 | 20754 ft | 423 kts | 34° |
| 2026-05-05 16:06 | 35.02155 | 136.26227 | 21177 ft | 428 kts | 37° |
| 2026-05-05 16:07 | 35.04512 | 136.28470 | 21575 ft | 432 kts | 36° |
| 2026-05-05 16:07 | 35.06916 | 136.30686 | 21992 ft | 436 kts | 35° |
| 2026-05-05 16:07 | 35.09367 | 136.32882 | 22409 ft | 439 kts | 34° |
| 2026-05-05 16:07 | 35.11838 | 136.35123 | 22807 ft | 444 kts | 35° |
| 2026-05-05 16:08 | 35.14307 | 136.37408 | 23185 ft | 447 kts | 35° |
| 2026-05-05 16:08 | 35.16801 | 136.39712 | 23581 ft | 451 kts | 35° |
| 2026-05-05 16:08 | 35.19322 | 136.42016 | 23945 ft | 455 kts | 34° |
| 2026-05-05 16:08 | 35.21865 | 136.44335 | 24232 ft | 457 kts | 34° |
| 2026-05-05 16:09 | 35.24417 | 136.46680 | 24535 ft | 461 kts | 34° |
| 2026-05-05 16:09 | 35.26982 | 136.49052 | 24818 ft | 465 kts | 34° |
| 2026-05-05 16:09 | 35.29580 | 136.51449 | 25112 ft | 469 kts | 33° |
| 2026-05-05 16:09 | 35.32189 | 136.53849 | 25331 ft | 472 kts | 33° |
| 2026-05-05 16:10 | 35.34830 | 136.56282 | 25611 ft | 476 kts | 33° |
| 2026-05-05 16:10 | 35.37488 | 136.58739 | 25855 ft | 481 kts | 33° |
| 2026-05-05 16:10 | 35.40167 | 136.61220 | 26125 ft | 485 kts | 33° |
| 2026-05-05 16:10 | 35.42869 | 136.63719 | 26398 ft | 489 kts | 32° |
| 2026-05-05 16:11 | 35.45593 | 136.66239 | 26693 ft | 492 kts | 32° |
| 2026-05-05 16:11 | 35.53885 | 136.73933 | 27529 ft | 504 kts | 32° |
| 2026-05-05 16:12 | 35.56709 | 136.76553 | 27579 ft | 514 kts | 32° |
| 2026-05-05 16:12 | 35.62508 | 136.81948 | 27654 ft | 534 kts | 32° |
| 2026-05-05 16:13 | 35.71507 | 136.90348 | 28233 ft | 549 kts | 32° |
| 2026-05-05 16:13 | 35.74558 | 136.93197 | 28531 ft | 554 kts | 32° |
| 2026-05-05 16:13 | 35.77630 | 136.96073 | 28812 ft | 557 kts | 31° |
| 2026-05-05 16:14 | 35.83840 | 137.01892 | 29458 ft | 563 kts | 32° |
| 2026-05-05 16:14 | 35.90108 | 137.07776 | 30001 ft | 570 kts | 31° |
| 2026-05-05 16:15 | 35.96453 | 137.13744 | 30489 ft | 577 kts | 31° |
| 2026-05-05 16:15 | 36.02850 | 137.19776 | 31105 ft | 580 kts | 31° |
| 2026-05-05 16:16 | 36.08947 | 137.25538 | 31731 ft | 583 kts | 31° |
| 2026-05-05 16:16 | 36.15391 | 137.31640 | 32639 ft | 583 kts | 31° |
| 2026-05-05 16:17 | 36.21813 | 137.37730 | 33502 ft | 583 kts | 31° |
| 2026-05-05 16:17 | 36.25034 | 137.40795 | 33945 ft | 583 kts | 31° |
| 2026-05-05 16:18 | 36.31474 | 137.46919 | 34544 ft | 585 kts | 31° |
| 2026-05-05 16:18 | 36.34716 | 137.49995 | 34832 ft | 585 kts | 31° |
| 2026-05-05 16:18 | 36.41155 | 137.56169 | 35531 ft | 583 kts | 31° |
| 2026-05-05 16:19 | 36.44358 | 137.59240 | 35989 ft | 581 kts | 31° |
| 2026-05-05 16:19 | 36.47555 | 137.62286 | 36291 ft | 579 kts | 31° |
| 2026-05-05 16:19 | 36.53935 | 137.68403 | 36824 ft | 576 kts | 32° |
| 2026-05-05 16:20 | 36.60555 | 137.73865 | 37450 ft | 569 kts | 23° |
| 2026-05-05 16:20 | 36.67310 | 137.78979 | 38060 ft | 570 kts | 25° |
| 2026-05-05 16:21 | 36.73970 | 137.84280 | 38920 ft | 564 kts | 24° |
| 2026-05-05 16:22 | 36.83961 | 137.92007 | 39826 ft | 563 kts | 25° |
| 2026-05-05 16:22 | 36.90551 | 137.97189 | 40540 ft | 557 kts | 24° |
| 2026-05-05 16:23 | 36.97093 | 138.02286 | 41181 ft | 554 kts | 25° |
| 2026-05-05 16:23 | 37.06861 | 138.09980 | 41207 ft | 547 kts | 25° |
| 2026-05-05 16:24 | 37.13306 | 138.15045 | 41178 ft | 548 kts | 25° |
| 2026-05-05 16:25 | 37.22627 | 138.22414 | 41205 ft | 546 kts | 25° |
| 2026-05-05 16:25 | 37.32260 | 138.30041 | 41197 ft | 546 kts | 25° |
| 2026-05-05 16:26 | 37.45045 | 138.40204 | 41198 ft | 544 kts | 25° |
| 2026-05-05 16:27 | 37.51439 | 138.45303 | 41190 ft | 544 kts | 25° |
| 2026-05-05 16:27 | 37.57838 | 138.50415 | 41190 ft | 545 kts | 25° |
| 2026-05-05 16:28 | 37.64245 | 138.55547 | 41197 ft | 545 kts | 25° |
| 2026-05-05 16:28 | 37.70632 | 138.60670 | 41194 ft | 543 kts | 25° |
| 2026-05-05 16:29 | 37.77007 | 138.65795 | 41189 ft | 544 kts | 25° |
| 2026-05-05 16:29 | 37.83398 | 138.70945 | 41189 ft | 546 kts | 25° |
| 2026-05-05 16:30 | 37.88724 | 138.75242 | 41194 ft | 547 kts | 26° |
| 2026-05-05 16:30 | 37.95120 | 138.80419 | 41175 ft | 543 kts | 26° |
| 2026-05-05 16:31 | 38.01477 | 138.85567 | 41184 ft | 542 kts | 26° |
| 2026-05-05 16:31 | 38.07822 | 138.90721 | 41192 ft | 542 kts | 26° |
| 2026-05-05 16:32 | 38.14162 | 138.95881 | 41189 ft | 541 kts | 26° |
| 2026-05-05 16:32 | 38.20492 | 139.01039 | 41189 ft | 540 kts | 26° |
| 2026-05-05 16:33 | 38.26806 | 139.06199 | 41194 ft | 539 kts | 26° |
| 2026-05-05 16:33 | 38.33122 | 139.11365 | 41190 ft | 540 kts | 26° |
| 2026-05-05 16:34 | 38.44347 | 139.20583 | 41188 ft | 540 kts | 26° |
| 2026-05-05 16:34 | 38.75082 | 139.45994 | 41194 ft | 537 kts | 26° |
| 2026-05-05 16:35 | 39.00010 | 139.66787 | 41321 ft | 533 kts | 26° |
| 2026-05-05 16:35 | 39.26396 | 139.81395 | 41094 ft | 527 kts | 14° |
| 2026-05-05 16:35 | 39.52949 | 139.96178 | 41386 ft | 513 kts | 13° |
| 2026-05-05 16:35 | 39.79468 | 140.11056 | 41060 ft | 528 kts | 19° |
| 2026-05-05 16:36 | 40.05514 | 140.27351 | 41319 ft | 524 kts | 19° |
| 2026-05-05 16:36 | 40.31623 | 140.43886 | 41051 ft | 523 kts | 19° |
| 2026-05-05 16:36 | 40.57471 | 140.60201 | 41301 ft | 507 kts | 18° |
| 2026-05-05 16:36 | 40.74472 | 140.70940 | 41077 ft | 510 kts | 16° |
| 2026-05-05 16:37 | 41.00934 | 140.83803 | 41105 ft | 506 kts | 14° |
| 2026-05-05 16:37 | 41.27171 | 140.96876 | 40079 ft | 497 kts | 13° |
| 2026-05-05 16:38 | 41.40008 | 141.03212 | 37086 ft | 498 kts | 14° |
| 2026-05-05 16:38 | 41.53026 | 141.09642 | 34449 ft | 482 kts | 15° |
| 2026-05-05 16:38 | 41.65333 | 141.15742 | 32072 ft | 461 kts | 15° |
| 2026-05-05 16:38 | 41.76946 | 141.21589 | 29899 ft | 444 kts | 16° |
| 2026-05-05 16:39 | 41.88303 | 141.27341 | 27753 ft | 426 kts | 15° |
| 2026-05-05 16:39 | 41.98725 | 141.34099 | 25774 ft | 421 kts | 38° |
| 2026-05-05 16:39 | 42.07009 | 141.44873 | 23974 ft | 408 kts | 38° |
| 2026-05-05 16:39 | 42.15507 | 141.54598 | 21976 ft | 389 kts | 21° |
| 2026-05-05 16:40 | 42.24919 | 141.61452 | 20253 ft | 380 kts | 23° |
| 2026-05-05 16:40 | 42.34034 | 141.68221 | 18568 ft | 366 kts | 23° |
| 2026-05-05 16:40 | 42.42760 | 141.74749 | 16844 ft | 354 kts | 23° |
| 2026-05-05 16:40 | 42.51358 | 141.81209 | 15185 ft | 352 kts | 22° |
| 2026-05-05 16:41 | 42.60026 | 141.86754 | 13233 ft | 328 kts | 354° |
| 2026-05-05 16:41 | 42.63953 | 141.86292 | 12491 ft | 315 kts | 346° |
| 2026-05-05 16:41 | 42.66146 | 141.86037 | 12042 ft | 317 kts | 348° |
| 2026-05-05 16:41 | 42.68339 | 141.85862 | 11644 ft | 314 kts | 348° |
| 2026-05-05 16:42 | 42.70509 | 141.85679 | 11253 ft | 311 kts | 348° |
| 2026-05-05 16:42 | 42.72658 | 141.85464 | 10850 ft | 308 kts | 347° |
| 2026-05-05 16:42 | 42.74777 | 141.85251 | 10446 ft | 303 kts | 347° |
| 2026-05-05 16:42 | 42.76859 | 141.85054 | 10049 ft | 298 kts | 347° |
| 2026-05-05 16:43 | 42.78911 | 141.84859 | 9629 ft | 293 kts | 347° |
| 2026-05-05 16:43 | 42.80927 | 141.84665 | 9220 ft | 288 kts | 347° |
| 2026-05-05 16:43 | 42.82878 | 141.84356 | 8811 ft | 275 kts | 338° |
| 2026-05-05 16:43 | 42.84715 | 141.83746 | 8442 ft | 269 kts | 336° |
| 2026-05-05 16:44 | 42.86492 | 141.83169 | 8093 ft | 265 kts | 336° |
| 2026-05-05 16:44 | 42.88305 | 141.82597 | 7768 ft | 263 kts | 336° |
| 2026-05-05 16:44 | 42.90048 | 141.82051 | 7438 ft | 259 kts | 336° |
| 2026-05-05 16:44 | 42.91802 | 141.81494 | 7087 ft | 259 kts | 335° |
| 2026-05-05 16:45 | 42.93559 | 141.80934 | 6763 ft | 259 kts | 335° |
| 2026-05-05 16:45 | 42.95311 | 141.80379 | 6433 ft | 258 kts | 335° |
| 2026-05-05 16:45 | 42.97056 | 141.79826 | 6084 ft | 258 kts | 335° |
| 2026-05-05 16:45 | 42.98809 | 141.79269 | 5735 ft | 259 kts | 335° |
| 2026-05-05 16:46 | 43.00475 | 141.78507 | 5311 ft | 245 kts | 319° |
| 2026-05-05 16:46 | 43.01773 | 141.77096 | 4953 ft | 230 kts | 302° |
| 2026-05-05 16:46 | 43.02608 | 141.75342 | 4634 ft | 218 kts | 287° |
| 2026-05-05 16:46 | 43.03015 | 141.73393 | 4334 ft | 213 kts | 271° |
| 2026-05-05 16:47 | 43.02984 | 141.71388 | 4032 ft | 210 kts | 257° |
| 2026-05-05 16:47 | 43.02538 | 141.69507 | 3756 ft | 208 kts | 243° |
| 2026-05-05 16:47 | 43.01723 | 141.67873 | 3483 ft | 209 kts | 230° |
| 2026-05-05 16:47 | 43.00684 | 141.66492 | 3195 ft | 212 kts | 217° |
| 2026-05-05 16:48 | 42.99342 | 141.65627 | 2991 ft | 214 kts | 201° |
| 2026-05-05 16:48 | 42.97921 | 141.65411 | 3026 ft | 196 kts | 186° |
| 2026-05-05 16:48 | 42.96639 | 141.65652 | 2985 ft | 174 kts | 180° |
| 2026-05-05 16:48 | 42.95505 | 141.65873 | 2982 ft | 159 kts | 182° |
| 2026-05-05 16:49 | 42.94420 | 141.66070 | 3002 ft | 156 kts | 183° |
| 2026-05-05 16:49 | 42.93373 | 141.66253 | 2977 ft | 150 kts | 186° |
| 2026-05-05 16:49 | 42.92318 | 141.66419 | 2795 ft | 153 kts | 184° |
| 2026-05-05 16:49 | 42.91281 | 141.66604 | 2579 ft | 149 kts | 183° |
| 2026-05-05 16:50 | 42.90235 | 141.66784 | 2392 ft | 153 kts | 182° |
| 2026-05-05 16:50 | 42.89192 | 141.66971 | 2180 ft | 150 kts | 181° |
| 2026-05-05 16:50 | 42.88171 | 141.67156 | 1981 ft | 146 kts | 181° |
| 2026-05-05 16:50 | 42.87200 | 141.67331 | 1768 ft | 131 kts | 180° |
| 2026-05-05 16:51 | 42.86341 | 141.67487 | 1600 ft | 121 kts | 180° |
| 2026-05-05 16:51 | 42.85482 | 141.67635 | 1435 ft | 125 kts | 179° |
| 2026-05-05 16:51 | 42.84636 | 141.67783 | 1271 ft | 121 kts | 178° |
| 2026-05-05 16:51 | 42.83782 | 141.67932 | 1104 ft | 125 kts | 176° |
| 2026-05-05 16:52 | 42.82919 | 141.68088 | 928 ft | 125 kts | 169° |
| 2026-05-05 16:52 | 42.82050 | 141.68243 | 723 ft | 130 kts | 172° |
| 2026-05-05 16:52 | 42.81154 | 141.68395 | 555 ft | 128 kts | 171° |
| 2026-05-05 16:52 | 42.80270 | 141.68558 | 382 ft | 128 kts | 171° |
| 2026-05-05 16:53 | 42.79400 | 141.68717 | 215 ft | 125 kts | 171° |
| 2026-05-05 16:53 | 42.78538 | 141.68866 | 103 ft | 124 kts | 172° |
| 2026-05-05 16:53 | 42.77721 | 141.69012 | 88 ft | 107 kts | 173° |
| 2026-05-05 16:53 | 42.77207 | 141.69098 | 89 ft | 41 kts | 173° |
| 2026-05-05 16:54 | 42.77024 | 141.69129 | 91 ft | 24 kts | 173° |
| 2026-05-05 16:54 | 42.76854 | 141.69125 | 87 ft | 25 kts | 194° |